createdAt,value
2018-05-25T00:00:04.719Z,29.33
2018-05-25T00:02:31.016Z,31.53
2018-05-25T00:04:57.341Z,29.93
2018-05-25T00:07:23.730Z,33.60
2018-05-25T00:09:50.032Z,35.30
2018-05-25T00:12:16.399Z,34.77
2018-05-25T00:14:42.709Z,29.07
2018-05-25T00:17:09.027Z,31.50
2018-05-25T00:19:35.318Z,32.40
2018-05-25T00:22:01.639Z,33.47
2018-05-25T00:24:27.905Z,32.37
2018-05-25T00:26:54.206Z,37.07
2018-05-25T00:29:20.477Z,32.53
2018-05-25T00:31:46.789Z,36.50
2018-05-25T00:34:13.093Z,19.00
2018-05-25T00:36:39.349Z,25.53
2018-05-25T00:39:05.676Z,22.00
2018-05-25T00:41:31.951Z,32.17
2018-05-25T00:43:58.218Z,35.37
2018-05-25T00:46:24.494Z,38.60
2018-05-25T00:48:50.797Z,37.97
2018-05-25T00:51:17.817Z,34.63
2018-05-25T00:53:44.098Z,37.17
2018-05-25T00:56:10.376Z,33.57
2018-05-25T00:58:36.662Z,36.50
2018-05-25T01:01:03.686Z,38.57
2018-05-25T01:03:29.994Z,36.30
2018-05-25T01:05:56.234Z,37.73
2018-05-25T01:08:22.577Z,38.93
2018-05-25T01:10:48.901Z,37.93
2018-05-25T01:13:15.185Z,34.37
2018-05-25T01:15:42.212Z,38.33
2018-05-25T01:18:08.486Z,35.53
2018-05-25T01:20:34.791Z,38.50
2018-05-25T01:23:01.035Z,41.13
2018-05-25T01:25:28.112Z,34.53
2018-05-25T01:27:54.413Z,27.80
2018-05-25T01:30:20.729Z,38.90
2018-05-25T01:32:47.065Z,42.77
2018-05-25T01:35:13.388Z,38.03
2018-05-25T01:37:39.650Z,29.47
2018-05-25T01:40:05.928Z,35.67
2018-05-25T01:42:32.956Z,34.07
2018-05-25T01:45:00.038Z,33.40
2018-05-25T01:47:26.325Z,35.00
2018-05-25T01:49:52.661Z,37.70
2018-05-25T01:52:18.971Z,35.73
2018-05-25T01:54:45.277Z,32.90
2018-05-25T01:57:11.587Z,34.83
2018-05-25T01:59:37.878Z,35.70
2018-05-25T02:02:04.173Z,35.73
2018-05-25T02:04:31.186Z,33.00
2018-05-25T02:06:57.486Z,36.77
2018-05-25T02:09:23.800Z,37.10
2018-05-25T02:11:50.860Z,37.77
2018-05-25T02:14:17.154Z,40.83
2018-05-25T02:16:43.565Z,37.80
2018-05-25T02:19:09.825Z,40.43
2018-05-25T02:21:36.157Z,37.93
2018-05-25T02:24:02.470Z,40.77
2018-05-25T02:26:28.742Z,35.70
2018-05-25T02:28:55.079Z,39.17
2018-05-25T02:31:23.143Z,37.07
2018-05-25T02:33:49.437Z,36.20
2018-05-25T02:36:15.777Z,37.53
2018-05-25T02:38:42.114Z,43.17
2018-05-25T02:41:08.368Z,38.13
2018-05-25T02:43:34.644Z,41.17
2018-05-25T02:46:00.986Z,42.40
2018-05-25T02:48:27.282Z,39.13
2018-05-25T02:50:53.599Z,38.07
2018-05-25T02:53:20.051Z,41.60
2018-05-25T02:55:46.388Z,40.33
2018-05-25T02:58:12.619Z,36.57
2018-05-25T03:00:38.937Z,35.77
2018-05-25T03:03:05.975Z,30.70
2018-05-25T03:05:33.028Z,33.77
2018-05-25T03:08:00.049Z,27.13
2018-05-25T03:10:26.314Z,19.70
2018-05-25T03:12:53.329Z,36.67
2018-05-25T03:15:19.662Z,33.97
2018-05-25T03:17:45.929Z,38.67
2018-05-25T03:20:13.056Z,40.77
2018-05-25T03:22:39.582Z,35.30
2018-05-25T03:25:05.944Z,38.67
2018-05-25T03:27:32.271Z,40.73
2018-05-25T03:29:58.524Z,38.90
2018-05-25T03:32:24.833Z,39.47
2018-05-25T03:34:51.145Z,41.03
2018-05-25T03:37:17.453Z,38.47
2018-05-25T03:39:44.546Z,40.73
2018-05-25T03:42:10.834Z,39.00
2018-05-25T03:44:37.125Z,41.93
2018-05-25T03:47:03.493Z,39.07
2018-05-25T03:49:29.821Z,36.63
2018-05-25T03:51:56.131Z,39.60
2018-05-25T03:54:22.441Z,41.37
2018-05-25T03:56:49.461Z,37.07
2018-05-25T03:59:34.329Z,32.87
2018-05-25T04:02:00.617Z,38.07
2018-05-25T04:04:26.901Z,37.53
2018-05-25T04:06:54.091Z,41.50
2018-05-25T04:09:20.398Z,40.07
2018-05-25T04:11:47.446Z,36.53
2018-05-25T04:14:13.848Z,34.53
2018-05-25T04:16:40.843Z,33.27
2018-05-25T04:19:07.101Z,34.13
2018-05-25T04:21:34.181Z,35.97
2018-05-25T04:24:00.446Z,34.13
2018-05-25T04:26:26.814Z,34.30
2018-05-25T04:28:53.172Z,31.20
2018-05-25T04:31:20.238Z,36.57
2018-05-25T04:33:46.518Z,35.33
2018-05-25T04:36:12.797Z,31.60
2018-05-25T04:38:39.085Z,38.10
2018-05-25T04:41:05.375Z,31.57
2018-05-25T04:43:31.715Z,34.23
2018-05-25T04:45:58.777Z,32.93
2018-05-25T04:48:25.062Z,34.03
2018-05-25T04:50:51.391Z,35.30
2018-05-25T04:53:17.719Z,32.53
2018-05-25T04:55:44.053Z,30.57
2018-05-25T04:58:10.341Z,29.13
2018-05-25T05:00:36.639Z,31.37
2018-05-25T05:03:03.017Z,31.47
2018-05-25T05:05:30.090Z,30.97
2018-05-25T05:07:56.365Z,31.70
2018-05-25T05:10:22.725Z,31.23
2018-05-25T05:12:49.825Z,32.07
2018-05-25T05:15:16.157Z,29.63
2018-05-25T05:17:42.445Z,26.87
2018-05-25T05:20:08.789Z,29.23
2018-05-25T05:22:35.806Z,22.43
2018-05-25T05:25:02.148Z,28.33
2018-05-25T05:27:28.495Z,27.57
2018-05-25T05:29:54.845Z,32.73
2018-05-25T05:32:21.917Z,25.93
2018-05-25T05:34:49.015Z,29.83
2018-05-25T05:37:15.348Z,28.37
2018-05-25T05:39:41.622Z,26.43
2018-05-25T05:42:07.932Z,27.73
2018-05-25T05:44:34.249Z,30.47
2018-05-25T05:47:00.588Z,28.30
2018-05-25T05:49:26.905Z,31.83
2018-05-25T05:51:53.251Z,26.43
2018-05-25T05:54:19.553Z,27.73
2018-05-25T05:56:46.593Z,25.60
2018-05-25T05:59:12.949Z,21.97
2018-05-25T06:01:39.946Z,28.00
2018-05-25T06:04:06.286Z,26.13
2018-05-25T06:06:32.661Z,25.90
2018-05-25T06:08:58.909Z,26.77
2018-05-25T06:11:25.922Z,30.30
2018-05-25T06:13:52.351Z,25.40
2018-05-25T06:16:18.641Z,28.30
2018-05-25T06:18:45.847Z,29.47
2018-05-25T06:21:12.090Z,28.97
2018-05-25T06:23:38.377Z,30.30
2018-05-25T06:26:05.474Z,28.17
2018-05-25T06:28:31.836Z,29.03
2018-05-25T06:30:58.141Z,28.93
2018-05-25T06:33:24.446Z,28.33
2018-05-25T06:35:50.757Z,29.83
2018-05-25T06:38:17.833Z,29.70
2018-05-25T06:40:44.909Z,26.53
2018-05-25T06:43:11.196Z,30.00
2018-05-25T06:45:37.607Z,27.17
2018-05-25T06:48:03.884Z,27.50
2018-05-25T06:50:30.956Z,28.17
2018-05-25T06:52:57.237Z,29.47
2018-05-25T06:55:23.576Z,29.50
2018-05-25T06:57:49.875Z,27.67
2018-05-25T07:00:16.158Z,29.40
2018-05-25T07:02:42.477Z,26.47
2018-05-25T07:05:08.788Z,29.83
2018-05-25T07:07:35.074Z,28.10
2018-05-25T07:10:01.403Z,27.63
2018-05-25T07:12:27.711Z,29.80
2018-05-25T07:14:54.017Z,30.47
2018-05-25T07:17:20.308Z,25.10
2018-05-25T07:19:46.817Z,27.77
2018-05-25T07:22:13.108Z,28.93
2018-05-25T07:24:40.140Z,30.43
2018-05-25T07:27:06.502Z,28.97
2018-05-25T07:29:33.559Z,30.90
2018-05-25T07:32:00.598Z,28.47
2018-05-25T07:34:26.904Z,30.03
2018-05-25T07:36:53.193Z,28.73
2018-05-25T07:39:20.183Z,28.73
2018-05-25T07:41:46.548Z,30.90
2018-05-25T07:44:12.857Z,28.97
2018-05-25T07:46:39.170Z,27.80
2018-05-25T07:49:05.533Z,33.83
2018-05-25T07:51:31.809Z,29.37
2018-05-25T07:53:58.105Z,29.00
2018-05-25T07:56:24.476Z,28.40
2018-05-25T07:58:50.825Z,28.83
2018-05-25T08:01:17.893Z,26.07
2018-05-25T08:03:44.918Z,28.17
2018-05-25T08:06:11.226Z,28.60
2018-05-25T08:08:37.551Z,28.93
2018-05-25T08:11:03.827Z,31.33
2018-05-25T08:13:30.101Z,29.80
2018-05-25T08:15:57.125Z,29.30
2018-05-25T08:18:23.414Z,26.63
2018-05-25T08:20:50.476Z,27.43
2018-05-25T08:23:16.794Z,36.90
2018-05-25T08:25:43.094Z,28.83
2018-05-25T08:28:10.154Z,29.43
2018-05-25T08:30:36.638Z,28.53
2018-05-25T08:33:02.942Z,26.47
2018-05-25T08:35:29.279Z,29.17
2018-05-25T08:37:56.346Z,28.90
2018-05-25T08:40:22.650Z,29.67
2018-05-25T08:42:49.851Z,30.53
2018-05-25T08:45:16.137Z,29.67
2018-05-25T08:47:42.492Z,33.53
2018-05-25T08:50:08.809Z,32.93
2018-05-25T08:52:35.106Z,30.77
2018-05-25T08:55:01.468Z,29.57
2018-05-25T08:57:27.764Z,28.73
2018-05-25T08:59:54.125Z,29.13
2018-05-25T09:02:20.350Z,28.87
2018-05-25T09:04:46.678Z,26.97
2018-05-25T09:07:12.990Z,28.53
2018-05-25T09:09:39.270Z,28.13
2018-05-25T09:12:05.565Z,29.27
2018-05-25T09:14:31.840Z,27.20
2018-05-25T09:16:58.105Z,26.47
2018-05-25T09:19:24.397Z,26.17
2018-05-25T09:21:50.824Z,25.00
2018-05-25T09:24:16.969Z,24.93
2018-05-25T09:26:43.238Z,24.83
2018-05-25T09:29:09.568Z,23.53
2018-05-25T09:31:35.834Z,23.97
2018-05-25T09:34:02.892Z,21.97
2018-05-25T09:36:29.983Z,21.90
2018-05-25T09:38:56.293Z,24.00
2018-05-25T09:41:23.355Z,23.57
2018-05-25T09:43:49.701Z,23.10
2018-05-25T09:46:15.987Z,23.23
2018-05-25T09:48:42.365Z,25.67
2018-05-25T09:51:08.622Z,19.77
2018-05-25T09:53:34.962Z,22.73
2018-05-25T09:56:01.367Z,23.87
2018-05-25T09:58:27.656Z,19.23
2018-05-25T10:00:53.984Z,19.40
2018-05-25T10:03:20.313Z,18.97
2018-05-25T10:05:46.577Z,20.83
2018-05-25T10:08:12.902Z,18.97
2018-05-25T10:10:39.206Z,17.27
2018-05-25T10:13:05.494Z,19.50
2018-05-25T10:15:31.790Z,19.57
2018-05-25T10:17:58.130Z,20.13
2018-05-25T10:20:25.069Z,17.03
2018-05-25T10:22:51.329Z,19.23
2018-05-25T10:25:17.641Z,17.00
2018-05-25T10:27:43.894Z,16.27
2018-05-25T10:30:10.249Z,18.67
2018-05-25T10:32:36.539Z,19.40
2018-05-25T10:35:02.828Z,19.03
2018-05-25T10:37:29.082Z,16.07
2018-05-25T10:39:56.138Z,15.77
2018-05-25T10:42:22.410Z,16.43
2018-05-25T10:44:48.710Z,13.70
2018-05-25T10:47:15.778Z,15.33
2018-05-25T10:49:42.809Z,16.67
2018-05-25T10:52:09.797Z,16.93
2018-05-25T10:54:36.122Z,18.07
2018-05-25T10:57:03.126Z,16.27
2018-05-25T10:59:29.433Z,15.67
2018-05-25T11:01:55.691Z,14.87
2018-05-25T11:04:21.931Z,14.23
2018-05-25T11:06:48.262Z,17.17
2018-05-25T11:09:14.501Z,17.07
2018-05-25T11:11:40.779Z,14.50
2018-05-25T11:14:07.801Z,14.37
2018-05-25T11:16:34.042Z,15.67
2018-05-25T11:19:00.532Z,14.03
2018-05-25T11:21:26.837Z,13.97
2018-05-25T11:23:53.830Z,13.67
2018-05-25T11:26:20.109Z,12.17
2018-05-25T11:28:46.602Z,9.57
2018-05-25T11:31:12.865Z,11.07
2018-05-25T11:33:39.230Z,10.00
2018-05-25T11:36:05.510Z,10.20
2018-05-25T11:38:31.777Z,10.50
2018-05-25T11:40:58.063Z,10.43
2018-05-25T11:43:25.096Z,11.43
2018-05-25T11:45:52.083Z,11.25
2018-05-25T11:48:18.345Z,12.25
2018-05-25T11:50:44.596Z,10.02
2018-05-25T11:53:10.866Z,9.00
2018-05-25T11:55:37.956Z,8.88
2018-05-25T11:58:04.243Z,8.75
2018-05-25T12:00:31.591Z,9.10
2018-05-25T12:03:00.060Z,7.70
2018-05-25T12:05:26.345Z,8.00
2018-05-25T12:07:52.629Z,9.60
2018-05-25T12:10:18.901Z,9.65
2018-05-25T12:12:45.899Z,8.75
2018-05-25T12:15:12.216Z,8.48
2018-05-25T12:17:38.542Z,8.38
2018-05-25T12:20:04.863Z,7.80
2018-05-25T12:22:31.884Z,7.90
2018-05-25T12:24:58.187Z,6.45
2018-05-25T12:27:24.482Z,6.68
2018-05-25T12:29:51.553Z,6.53
2018-05-25T12:32:18.851Z,5.78
2018-05-25T12:34:45.905Z,5.70
2018-05-25T12:37:16.968Z,6.65
2018-05-25T12:39:43.298Z,6.90
2018-05-25T12:42:09.577Z,6.80
2018-05-25T12:44:55.202Z,6.07
2018-05-25T12:47:21.514Z,5.00
2018-05-25T12:49:47.803Z,5.53
2018-05-25T12:52:14.095Z,5.70
2018-05-25T12:54:40.457Z,4.93
2018-05-25T12:57:06.729Z,5.10
2018-05-25T12:59:33.780Z,5.47
2018-05-25T13:02:00.789Z,5.60
2018-05-25T13:04:27.130Z,5.95
2018-05-25T13:06:53.415Z,6.18
2018-05-25T13:09:20.435Z,5.43
2018-05-25T13:11:46.757Z,5.40
2018-05-25T13:14:12.982Z,5.50
2018-05-25T13:16:39.241Z,4.70
2018-05-25T13:19:05.510Z,6.03
2018-05-25T13:21:32.505Z,5.62
2018-05-25T13:23:58.865Z,5.87
2018-05-25T13:26:25.136Z,6.05
2018-05-25T13:28:52.128Z,6.15
2018-05-25T13:31:18.514Z,6.90
2018-05-25T13:33:44.760Z,6.53
2018-05-25T13:36:11.805Z,6.67
2018-05-25T13:38:38.843Z,7.57
2018-05-25T13:41:05.141Z,7.03
2018-05-25T13:43:31.393Z,6.13
2018-05-25T13:45:57.673Z,7.30
2018-05-25T13:48:24.678Z,6.80
2018-05-25T13:50:51.007Z,6.97
2018-05-25T13:53:17.278Z,6.47
2018-05-25T13:55:43.586Z,6.90
2018-05-25T13:58:10.111Z,7.00
2018-05-25T14:00:36.341Z,6.13
2018-05-25T14:03:02.673Z,6.50
2018-05-25T14:05:29.005Z,6.37
2018-05-25T14:07:55.309Z,7.23
2018-05-25T14:10:22.302Z,6.50
2018-05-25T14:12:48.655Z,6.93
2018-05-25T14:15:14.928Z,6.57
2018-05-25T14:17:41.985Z,6.30
2018-05-25T14:20:09.074Z,6.23
2018-05-25T14:22:35.370Z,6.73
2018-05-25T14:25:01.635Z,6.50
2018-05-25T14:27:27.906Z,6.70
2018-05-25T14:29:54.241Z,6.87
2018-05-25T14:32:20.529Z,6.60
2018-05-25T14:34:47.566Z,6.77
2018-05-25T14:37:13.872Z,6.67
2018-05-25T14:39:40.290Z,6.90
2018-05-25T14:42:06.567Z,6.40
2018-05-25T14:44:32.848Z,6.50
2018-05-25T14:46:59.109Z,6.60
2018-05-25T14:49:25.501Z,6.60
2018-05-25T14:51:51.758Z,6.37
2018-05-25T14:54:18.058Z,6.40
2018-05-25T14:56:44.442Z,6.40
2018-05-25T14:59:10.724Z,6.53
2018-05-25T15:01:37.019Z,6.00
2018-05-25T15:04:03.319Z,6.13
2018-05-25T15:06:30.352Z,5.93
2018-05-25T15:08:56.614Z,6.03
2018-05-25T15:11:23.621Z,5.60
2018-05-25T15:13:49.909Z,6.93
2018-05-25T15:16:16.241Z,5.60
2018-05-25T15:18:43.268Z,5.47
2018-05-25T15:21:10.312Z,5.53
2018-05-25T15:23:36.571Z,5.77
2018-05-25T15:26:02.874Z,5.50
2018-05-25T15:28:29.202Z,5.80
2018-05-25T15:30:55.669Z,5.63
2018-05-25T15:33:21.785Z,5.17
2018-05-25T15:35:48.090Z,5.20
2018-05-25T15:38:14.365Z,5.37
2018-05-25T15:40:40.665Z,5.87
2018-05-25T15:43:06.997Z,5.53
2018-05-25T15:45:33.249Z,4.80
2018-05-25T15:47:59.722Z,5.43
2018-05-25T15:50:26.170Z,5.90
2018-05-25T15:52:53.516Z,4.97
2018-05-25T15:55:21.141Z,4.50
2018-05-25T15:57:47.449Z,6.13
2018-05-25T16:00:14.445Z,5.43
2018-05-25T16:02:40.759Z,5.20
2018-05-25T16:05:07.196Z,5.00
2018-05-25T16:07:33.582Z,5.20
2018-05-25T16:09:59.844Z,4.97
2018-05-25T16:12:26.131Z,5.03
2018-05-25T16:14:52.381Z,6.33
2018-05-25T16:17:18.725Z,4.97
2018-05-25T16:19:45.029Z,4.83
2018-05-25T16:22:11.386Z,4.73
2018-05-25T16:24:37.888Z,5.47
2018-05-25T16:27:04.400Z,5.43
2018-05-25T16:29:31.498Z,4.93
2018-05-25T16:31:57.809Z,4.83
2018-05-25T16:34:24.162Z,4.70
2018-05-25T16:36:50.489Z,4.67
2018-05-25T16:39:16.766Z,4.37
2018-05-25T16:41:43.085Z,4.90
2018-05-25T16:44:10.164Z,4.60
2018-05-25T16:46:36.451Z,4.43
2018-05-25T16:49:10.236Z,4.37
2018-05-25T16:51:37.455Z,4.50
2018-05-25T16:54:03.733Z,6.00
2018-05-25T16:56:30.906Z,4.27
2018-05-25T16:58:57.213Z,4.00
2018-05-25T17:01:23.497Z,4.93
2018-05-25T17:03:49.805Z,4.33
2018-05-25T17:06:16.857Z,3.87
2018-05-25T17:08:43.937Z,3.73
2018-05-25T17:11:10.255Z,3.63
2018-05-25T17:13:36.635Z,3.83
2018-05-25T17:16:02.947Z,4.17
2018-05-25T17:18:29.265Z,4.27
2018-05-25T17:20:55.597Z,4.10
2018-05-25T17:23:21.947Z,4.43
2018-05-25T17:25:48.222Z,6.03
2018-05-25T17:28:14.550Z,4.27
2018-05-25T17:30:40.820Z,4.07
2018-05-25T17:33:07.069Z,4.80
2018-05-25T17:35:34.161Z,4.60
2018-05-25T17:38:00.427Z,4.40
2018-05-25T17:40:26.723Z,4.70
2018-05-25T17:42:53.148Z,4.77
2018-05-25T17:45:19.414Z,4.80
2018-05-25T17:47:45.684Z,5.10
2018-05-25T17:50:12.003Z,4.90
2018-05-25T17:52:38.300Z,4.73
2018-05-25T17:55:04.645Z,5.50
2018-05-25T17:57:30.958Z,5.60
2018-05-25T17:59:57.277Z,5.10
2018-05-25T18:02:24.320Z,6.07
2018-05-25T18:04:50.627Z,5.03
2018-05-25T18:07:16.888Z,5.80
2018-05-25T18:09:43.166Z,5.07
2018-05-25T18:12:09.447Z,5.93
2018-05-25T18:14:35.694Z,5.17
2018-05-25T18:17:02.023Z,5.50
2018-05-25T18:19:28.355Z,5.47
2018-05-25T18:21:54.618Z,6.80
2018-05-25T18:24:20.969Z,5.83
2018-05-25T18:26:47.316Z,5.20
2018-05-25T18:29:13.647Z,5.70
2018-05-25T18:31:39.946Z,5.33
2018-05-25T18:34:06.287Z,5.07
2018-05-25T18:36:32.578Z,5.57
2018-05-25T18:38:58.866Z,5.37
2018-05-25T18:41:25.267Z,5.50
2018-05-25T18:43:51.561Z,5.53
2018-05-25T18:46:18.626Z,6.93
2018-05-25T18:48:44.986Z,8.23
2018-05-25T18:51:11.280Z,5.27
2018-05-25T18:53:37.651Z,5.67
2018-05-25T18:56:03.998Z,5.03
2018-05-25T18:58:30.318Z,7.00
2018-05-25T19:00:56.618Z,5.60
2018-05-25T19:03:23.645Z,6.40
2018-05-25T19:05:49.979Z,6.20
2018-05-25T19:08:16.265Z,6.23
2018-05-25T19:10:42.565Z,7.97
2018-05-25T19:13:08.858Z,6.43
2018-05-25T19:15:35.165Z,6.93
2018-05-25T19:18:02.287Z,6.87
2018-05-25T19:20:28.674Z,7.60
2018-05-25T19:22:54.998Z,8.63
2018-05-25T19:25:22.069Z,6.93
2018-05-25T19:27:49.226Z,7.40
2018-05-25T19:30:15.567Z,6.63
2018-05-25T19:32:41.878Z,8.30
2018-05-25T19:35:08.939Z,7.40
2018-05-25T19:37:35.233Z,6.83
2018-05-25T19:40:01.624Z,7.83
2018-05-25T19:42:27.938Z,8.03
2018-05-25T19:44:54.966Z,7.23
2018-05-25T19:47:21.257Z,11.67
2018-05-25T19:49:47.525Z,9.33
2018-05-25T19:52:13.829Z,8.30
2018-05-25T19:54:40.140Z,7.50
2018-05-25T19:57:07.379Z,7.53
2018-05-25T19:59:34.645Z,7.17
2018-05-25T20:02:01.700Z,9.47
2018-05-25T20:04:28.686Z,7.63
2018-05-25T20:06:55.002Z,8.90
2018-05-25T20:09:21.386Z,7.73
2018-05-25T20:11:47.707Z,8.10
2018-05-25T20:14:14.022Z,10.13
2018-05-25T20:16:40.281Z,14.10
2018-05-25T20:19:06.604Z,11.37
2018-05-25T20:21:32.935Z,10.27
2018-05-25T20:23:59.171Z,8.70
2018-05-25T20:26:25.405Z,7.23
2018-05-25T20:28:51.701Z,7.57
2018-05-25T20:31:17.989Z,7.03
2018-05-25T20:33:44.302Z,7.80
2018-05-25T20:36:13.600Z,7.63
2018-05-25T20:38:40.705Z,7.03
2018-05-25T20:41:07.008Z,7.43
2018-05-25T20:43:33.286Z,7.63
2018-05-25T20:45:59.570Z,7.17
2018-05-25T20:48:25.888Z,7.30
2018-05-25T20:50:52.250Z,6.60
2018-05-25T20:53:18.546Z,7.47
2018-05-25T20:55:44.805Z,7.43
2018-05-25T20:58:11.902Z,7.40
2018-05-25T21:00:38.194Z,6.70
2018-05-25T21:03:05.290Z,6.60
2018-05-25T21:05:31.623Z,6.80
2018-05-25T21:07:58.000Z,7.63
2018-05-25T21:10:24.270Z,6.57
2018-05-25T21:12:50.587Z,6.77
2018-05-25T21:15:17.657Z,6.50
2018-05-25T21:17:44.023Z,6.53
2018-05-25T21:20:10.350Z,7.40
2018-05-25T21:22:36.618Z,6.17
2018-05-25T21:25:02.944Z,6.13
2018-05-25T21:27:30.342Z,6.10
2018-05-25T21:29:56.643Z,7.03
2018-05-25T21:32:22.935Z,7.33
2018-05-25T21:34:50.841Z,7.03
2018-05-25T21:37:21.387Z,7.00
2018-05-25T21:39:51.867Z,8.00
2018-05-25T21:42:18.286Z,6.93
2018-05-25T21:44:46.141Z,7.23
2018-05-25T21:47:12.965Z,6.07
2018-05-25T21:49:42.043Z,6.87
2018-05-25T21:52:08.705Z,6.50
2018-05-25T21:54:34.998Z,7.77
2018-05-25T21:57:02.045Z,8.07
2018-05-25T21:59:28.317Z,8.07
2018-05-25T22:01:54.638Z,7.50
2018-05-25T22:04:20.897Z,7.30
2018-05-25T22:06:47.185Z,8.57
2018-05-25T22:09:13.489Z,8.77
2018-05-25T22:11:39.777Z,9.50
2018-05-25T22:14:06.118Z,7.27
2018-05-25T22:16:32.501Z,7.00
2018-05-25T22:18:58.808Z,6.80
2018-05-25T22:21:25.136Z,8.17
2018-05-25T22:23:51.410Z,7.30
2018-05-25T22:26:17.681Z,7.50
2018-05-25T22:28:44.759Z,7.13
2018-05-25T22:31:11.045Z,8.47
2018-05-25T22:33:37.307Z,7.07
2018-05-25T22:36:04.355Z,7.33
2018-05-25T22:38:31.407Z,6.90
2018-05-25T22:40:58.464Z,7.20
2018-05-25T22:43:43.989Z,8.10
2018-05-25T22:46:28.721Z,7.60
2018-05-25T22:49:13.422Z,7.40
2018-05-25T22:51:58.054Z,7.50
2018-05-25T22:54:33.305Z,7.23
2018-05-25T22:56:59.594Z,8.23
2018-05-25T22:59:26.611Z,7.60
2018-05-25T23:01:52.948Z,8.37
2018-05-25T23:04:20.756Z,7.90
2018-05-25T23:06:47.762Z,7.80
2018-05-25T23:09:14.058Z,7.90
2018-05-25T23:11:40.354Z,8.40
2018-05-25T23:14:06.616Z,8.37
2018-05-25T23:16:32.918Z,8.83
2018-05-25T23:18:59.993Z,8.83
2018-05-25T23:21:26.254Z,9.53
2018-05-25T23:23:52.585Z,9.67
2018-05-25T23:26:18.886Z,7.60
2018-05-25T23:28:45.164Z,8.47
2018-05-25T23:31:11.432Z,7.77
2018-05-25T23:33:37.714Z,11.37
2018-05-25T23:36:04.723Z,8.47
2018-05-25T23:38:30.977Z,11.47
2018-05-25T23:40:57.292Z,8.77
2018-05-25T23:43:23.642Z,9.30
2018-05-25T23:45:49.902Z,8.60
2018-05-25T23:48:16.914Z,9.37
2018-05-25T23:50:43.241Z,11.60
2018-05-25T23:53:09.576Z,12.63
2018-05-25T23:55:35.929Z,9.10
2018-05-25T23:58:02.178Z,9.33
